sensor_id;sensor_type;location;lat;lon;timestamp;P1;durP1;ratioP1;P2;durP2;ratioP2
54545;SDS011;40444;45.184;9.850;2024-02-15T00:01:45;30.27;;;23.10;;
54545;SDS011;40444;45.184;9.850;2024-02-15T00:04:13;33.63;;;23.90;;
54545;SDS011;40444;45.184;9.850;2024-02-15T00:06:42;26.17;;;21.40;;
54545;SDS011;40444;45.184;9.850;2024-02-15T00:09:10;25.90;;;20.73;;
54545;SDS011;40444;45.184;9.850;2024-02-15T00:11:40;30.17;;;23.15;;
54545;SDS011;40444;45.184;9.850;2024-02-15T00:14:08;28.73;;;22.40;;
54545;SDS011;40444;45.184;9.850;2024-02-15T00:16:37;34.47;;;23.42;;
54545;SDS011;40444;45.184;9.850;2024-02-15T00:19:06;36.50;;;23.90;;
54545;SDS011;40444;45.184;9.850;2024-02-15T00:21:35;31.38;;;22.63;;
54545;SDS011;40444;45.184;9.850;2024-02-15T00:24:04;37.13;;;26.25;;
54545;SDS011;40444;45.184;9.850;2024-02-15T00:26:33;39.88;;;25.98;;
54545;SDS011;40444;45.184;9.850;2024-02-15T00:29:01;35.70;;;25.88;;
54545;SDS011;40444;45.184;9.850;2024-02-15T00:31:30;37.80;;;25.77;;
54545;SDS011;40444;45.184;9.850;2024-02-15T00:33:59;36.10;;;26.58;;
54545;SDS011;40444;45.184;9.850;2024-02-15T00:36:28;38.25;;;27.63;;
54545;SDS011;40444;45.184;9.850;2024-02-15T00:38:57;36.85;;;26.23;;
54545;SDS011;40444;45.184;9.850;2024-02-15T00:41:27;37.33;;;25.73;;
54545;SDS011;40444;45.184;9.850;2024-02-15T00:43:55;27.73;;;21.30;;
54545;SDS011;40444;45.184;9.850;2024-02-15T00:46:24;23.65;;;18.85;;
54545;SDS011;40444;45.184;9.850;2024-02-15T00:48:57;21.38;;;17.50;;
54545;SDS011;40444;45.184;9.850;2024-02-15T00:51:26;24.40;;;18.75;;
54545;SDS011;40444;45.184;9.850;2024-02-15T00:53:54;24.30;;;17.33;;
54545;SDS011;40444;45.184;9.850;2024-02-15T00:56:23;20.52;;;15.18;;
54545;SDS011;40444;45.184;9.850;2024-02-15T00:58:53;18.48;;;15.73;;
54545;SDS011;40444;45.184;9.850;2024-02-15T01:01:22;21.65;;;15.55;;
54545;SDS011;40444;45.184;9.850;2024-02-15T01:03:50;19.67;;;15.65;;
54545;SDS011;40444;45.184;9.850;2024-02-15T01:06:19;17.55;;;14.48;;
54545;SDS011;40444;45.184;9.850;2024-02-15T01:08:48;19.05;;;15.52;;
54545;SDS011;40444;45.184;9.850;2024-02-15T01:11:17;18.65;;;14.65;;
54545;SDS011;40444;45.184;9.850;2024-02-15T01:13:49;21.75;;;17.02;;
54545;SDS011;40444;45.184;9.850;2024-02-15T01:16:19;20.40;;;16.70;;
54545;SDS011;40444;45.184;9.850;2024-02-15T01:18:49;25.25;;;17.38;;
54545;SDS011;40444;45.184;9.850;2024-02-15T01:21:18;26.48;;;18.38;;
54545;SDS011;40444;45.184;9.850;2024-02-15T01:23:47;24.05;;;18.15;;
54545;SDS011;40444;45.184;9.850;2024-02-15T01:26:16;23.02;;;18.45;;
54545;SDS011;40444;45.184;9.850;2024-02-15T01:28:44;25.38;;;18.05;;
54545;SDS011;40444;45.184;9.850;2024-02-15T01:31:13;27.48;;;20.58;;
54545;SDS011;40444;45.184;9.850;2024-02-15T01:33:45;25.45;;;19.02;;
54545;SDS011;40444;45.184;9.850;2024-02-15T01:36:14;23.60;;;17.98;;
54545;SDS011;40444;45.184;9.850;2024-02-15T01:38:44;22.67;;;17.10;;
54545;SDS011;40444;45.184;9.850;2024-02-15T01:41:13;23.42;;;19.02;;
54545;SDS011;40444;45.184;9.850;2024-02-15T01:43:44;25.55;;;19.73;;
54545;SDS011;40444;45.184;9.850;2024-02-15T01:46:13;22.30;;;18.25;;
54545;SDS011;40444;45.184;9.850;2024-02-15T01:48:43;21.88;;;17.88;;
54545;SDS011;40444;45.184;9.850;2024-02-15T01:51:12;27.85;;;20.98;;
54545;SDS011;40444;45.184;9.850;2024-02-15T01:53:42;20.52;;;16.10;;
54545;SDS011;40444;45.184;9.850;2024-02-15T01:56:12;19.10;;;15.70;;
54545;SDS011;40444;45.184;9.850;2024-02-15T01:58:43;17.58;;;15.70;;
54545;SDS011;40444;45.184;9.850;2024-02-15T02:01:14;19.90;;;16.70;;
54545;SDS011;40444;45.184;9.850;2024-02-15T02:03:43;23.23;;;18.38;;
54545;SDS011;40444;45.184;9.850;2024-02-15T02:06:12;24.70;;;18.27;;
54545;SDS011;40444;45.184;9.850;2024-02-15T02:08:41;24.23;;;18.02;;
54545;SDS011;40444;45.184;9.850;2024-02-15T02:11:10;25.80;;;18.55;;
54545;SDS011;40444;45.184;9.850;2024-02-15T02:13:39;24.23;;;18.85;;
54545;SDS011;40444;45.184;9.850;2024-02-15T02:16:24;26.60;;;19.30;;
54545;SDS011;40444;45.184;9.850;2024-02-15T02:18:57;25.02;;;18.30;;
54545;SDS011;40444;45.184;9.850;2024-02-15T02:21:27;25.17;;;20.45;;
54545;SDS011;40444;45.184;9.850;2024-02-15T02:23:56;25.05;;;19.75;;
54545;SDS011;40444;45.184;9.850;2024-02-15T02:26:26;25.42;;;18.50;;
54545;SDS011;40444;45.184;9.850;2024-02-15T02:28:55;24.73;;;18.98;;
54545;SDS011;40444;45.184;9.850;2024-02-15T02:31:24;27.85;;;20.23;;
54545;SDS011;40444;45.184;9.850;2024-02-15T02:33:53;27.42;;;21.00;;
54545;SDS011;40444;45.184;9.850;2024-02-15T02:36:22;27.08;;;19.88;;
54545;SDS011;40444;45.184;9.850;2024-02-15T02:38:55;29.08;;;21.58;;
54545;SDS011;40444;45.184;9.850;2024-02-15T02:41:29;28.95;;;20.98;;
54545;SDS011;40444;45.184;9.850;2024-02-15T02:43:58;23.40;;;19.48;;
54545;SDS011;40444;45.184;9.850;2024-02-15T02:46:27;20.77;;;18.15;;
54545;SDS011;40444;45.184;9.850;2024-02-15T02:48:55;21.10;;;18.80;;
54545;SDS011;40444;45.184;9.850;2024-02-15T02:51:24;20.33;;;18.15;;
54545;SDS011;40444;45.184;9.850;2024-02-15T02:53:53;16.63;;;14.82;;
54545;SDS011;40444;45.184;9.850;2024-02-15T02:56:21;18.33;;;15.35;;
54545;SDS011;40444;45.184;9.850;2024-02-15T02:58:49;16.00;;;13.88;;
54545;SDS011;40444;45.184;9.850;2024-02-15T03:01:18;17.65;;;15.85;;
54545;SDS011;40444;45.184;9.850;2024-02-15T03:03:46;16.30;;;14.60;;
54545;SDS011;40444;45.184;9.850;2024-02-15T03:06:16;15.48;;;13.88;;
54545;SDS011;40444;45.184;9.850;2024-02-15T03:08:44;17.13;;;14.85;;
54545;SDS011;40444;45.184;9.850;2024-02-15T03:11:13;16.33;;;14.73;;
54545;SDS011;40444;45.184;9.850;2024-02-15T03:13:42;17.92;;;16.00;;
54545;SDS011;40444;45.184;9.850;2024-02-15T03:16:12;18.25;;;16.35;;
54545;SDS011;40444;45.184;9.850;2024-02-15T03:18:43;14.43;;;13.13;;
54545;SDS011;40444;45.184;9.850;2024-02-15T03:21:12;13.60;;;12.30;;
54545;SDS011;40444;45.184;9.850;2024-02-15T03:23:40;15.95;;;13.05;;
54545;SDS011;40444;45.184;9.850;2024-02-15T03:26:08;15.98;;;14.25;;
54545;SDS011;40444;45.184;9.850;2024-02-15T03:28:38;18.98;;;15.98;;
54545;SDS011;40444;45.184;9.850;2024-02-15T03:31:07;21.25;;;17.50;;
54545;SDS011;40444;45.184;9.850;2024-02-15T03:33:36;18.92;;;16.27;;
54545;SDS011;40444;45.184;9.850;2024-02-15T03:36:05;18.60;;;16.20;;
54545;SDS011;40444;45.184;9.850;2024-02-15T03:38:34;18.02;;;15.55;;
54545;SDS011;40444;45.184;9.850;2024-02-15T03:41:02;16.60;;;14.85;;
54545;SDS011;40444;45.184;9.850;2024-02-15T03:43:31;15.20;;;13.38;;
54545;SDS011;40444;45.184;9.850;2024-02-15T03:46:01;15.27;;;13.77;;
54545;SDS011;40444;45.184;9.850;2024-02-15T03:48:30;15.13;;;13.63;;
54545;SDS011;40444;45.184;9.850;2024-02-15T03:51:00;15.48;;;13.88;;
54545;SDS011;40444;45.184;9.850;2024-02-15T03:53:29;15.98;;;14.13;;
54545;SDS011;40444;45.184;9.850;2024-02-15T04:00:31;14.93;;;13.32;;
54545;SDS011;40444;45.184;9.850;2024-02-15T04:03:06;14.35;;;12.95;;
54545;SDS011;40444;45.184;9.850;2024-02-15T04:05:40;15.60;;;14.00;;
54545;SDS011;40444;45.184;9.850;2024-02-15T04:08:14;14.85;;;13.35;;
54545;SDS011;40444;45.184;9.850;2024-02-15T04:10:48;13.50;;;12.20;;
54545;SDS011;40444;45.184;9.850;2024-02-15T04:13:20;13.35;;;12.05;;
54545;SDS011;40444;45.184;9.850;2024-02-15T04:15:51;13.70;;;12.30;;
54545;SDS011;40444;45.184;9.850;2024-02-15T04:18:20;14.23;;;12.82;;
54545;SDS011;40444;45.184;9.850;2024-02-15T04:20:49;13.48;;;12.18;;
54545;SDS011;40444;45.184;9.850;2024-02-15T04:23:19;12.60;;;11.48;;
54545;SDS011;40444;45.184;9.850;2024-02-15T04:25:49;13.32;;;12.02;;
54545;SDS011;40444;45.184;9.850;2024-02-15T04:28:19;13.48;;;12.02;;
54545;SDS011;40444;45.184;9.850;2024-02-15T04:30:48;13.15;;;11.85;;
54545;SDS011;40444;45.184;9.850;2024-02-15T04:33:17;14.07;;;12.60;;
54545;SDS011;40444;45.184;9.850;2024-02-15T04:35:46;13.65;;;12.25;;
54545;SDS011;40444;45.184;9.850;2024-02-15T04:38:17;14.30;;;12.82;;
54545;SDS011;40444;45.184;9.850;2024-02-15T04:40:48;14.35;;;12.82;;
54545;SDS011;40444;45.184;9.850;2024-02-15T04:43:16;15.25;;;13.65;;
54545;SDS011;40444;45.184;9.850;2024-02-15T04:45:46;15.93;;;13.77;;
54545;SDS011;40444;45.184;9.850;2024-02-15T04:48:14;14.57;;;13.07;;
54545;SDS011;40444;45.184;9.850;2024-02-15T04:50:43;14.98;;;13.25;;
54545;SDS011;40444;45.184;9.850;2024-02-15T04:53:12;13.68;;;12.30;;
54545;SDS011;40444;45.184;9.850;2024-02-15T04:55:40;13.32;;;11.93;;
54545;SDS011;40444;45.184;9.850;2024-02-15T04:58:09;14.20;;;12.70;;
54545;SDS011;40444;45.184;9.850;2024-02-15T05:00:38;12.93;;;11.63;;
54545;SDS011;40444;45.184;9.850;2024-02-15T05:03:07;12.75;;;11.45;;
54545;SDS011;40444;45.184;9.850;2024-02-15T05:05:36;13.02;;;11.82;;
54545;SDS011;40444;45.184;9.850;2024-02-15T05:08:07;12.23;;;11.02;;
54545;SDS011;40444;45.184;9.850;2024-02-15T05:10:37;13.52;;;12.13;;
54545;SDS011;40444;45.184;9.850;2024-02-15T05:13:05;14.43;;;13.02;;
54545;SDS011;40444;45.184;9.850;2024-02-15T05:15:34;14.43;;;12.93;;
54545;SDS011;40444;45.184;9.850;2024-02-15T05:18:02;13.68;;;12.32;;
54545;SDS011;40444;45.184;9.850;2024-02-15T05:20:32;13.80;;;12.45;;
54545;SDS011;40444;45.184;9.850;2024-02-15T05:23:02;13.70;;;12.30;;
54545;SDS011;40444;45.184;9.850;2024-02-15T05:25:30;13.70;;;12.45;;
54545;SDS011;40444;45.184;9.850;2024-02-15T05:28:01;13.63;;;12.32;;
54545;SDS011;40444;45.184;9.850;2024-02-15T05:30:29;13.82;;;12.52;;
54545;SDS011;40444;45.184;9.850;2024-02-15T05:33:00;14.02;;;12.63;;
54545;SDS011;40444;45.184;9.850;2024-02-15T05:35:29;14.07;;;12.55;;
54545;SDS011;40444;45.184;9.850;2024-02-15T05:37:57;14.00;;;12.60;;
54545;SDS011;40444;45.184;9.850;2024-02-15T05:40:26;14.45;;;12.85;;
54545;SDS011;40444;45.184;9.850;2024-02-15T05:42:57;14.07;;;12.65;;
54545;SDS011;40444;45.184;9.850;2024-02-15T05:47:54;15.10;;;13.32;;
54545;SDS011;40444;45.184;9.850;2024-02-15T05:50:23;16.33;;;13.75;;
54545;SDS011;40444;45.184;9.850;2024-02-15T05:52:52;17.73;;;13.95;;
54545;SDS011;40444;45.184;9.850;2024-02-15T05:55:22;16.92;;;14.05;;
54545;SDS011;40444;45.184;9.850;2024-02-15T05:57:51;15.98;;;13.90;;
54545;SDS011;40444;45.184;9.850;2024-02-15T06:04:08;14.15;;;12.55;;
54545;SDS011;40444;45.184;9.850;2024-02-15T06:06:37;14.52;;;13.05;;
54545;SDS011;40444;45.184;9.850;2024-02-15T06:09:06;14.48;;;12.98;;
54545;SDS011;40444;45.184;9.850;2024-02-15T06:11:34;14.38;;;12.88;;
54545;SDS011;40444;45.184;9.850;2024-02-15T06:14:05;14.57;;;13.07;;
54545;SDS011;40444;45.184;9.850;2024-02-15T06:16:41;14.63;;;13.02;;
54545;SDS011;40444;45.184;9.850;2024-02-15T06:19:11;14.70;;;13.13;;
54545;SDS011;40444;45.184;9.850;2024-02-15T06:21:40;14.05;;;12.60;;
54545;SDS011;40444;45.184;9.850;2024-02-15T06:24:10;15.40;;;13.20;;
54545;SDS011;40444;45.184;9.850;2024-02-15T06:26:38;14.63;;;13.05;;
54545;SDS011;40444;45.184;9.850;2024-02-15T06:29:07;16.02;;;14.25;;
54545;SDS011;40444;45.184;9.850;2024-02-15T06:31:55;14.68;;;13.13;;
54545;SDS011;40444;45.184;9.850;2024-02-15T06:34:42;16.05;;;13.40;;
54545;SDS011;40444;45.184;9.850;2024-02-15T06:40:22;15.45;;;13.43;;
54545;SDS011;40444;45.184;9.850;2024-02-15T06:42:51;18.48;;;14.10;;
54545;SDS011;40444;45.184;9.850;2024-02-15T06:45:19;17.17;;;13.40;;
54545;SDS011;40444;45.184;9.850;2024-02-15T06:47:48;15.63;;;13.20;;
54545;SDS011;40444;45.184;9.850;2024-02-15T06:50:16;16.50;;;13.02;;
54545;SDS011;40444;45.184;9.850;2024-02-15T06:52:45;16.27;;;13.70;;
54545;SDS011;40444;45.184;9.850;2024-02-15T06:55:17;15.98;;;13.07;;
54545;SDS011;40444;45.184;9.850;2024-02-15T06:57:47;15.35;;;13.45;;
54545;SDS011;40444;45.184;9.850;2024-02-15T07:00:16;17.17;;;14.23;;
54545;SDS011;40444;45.184;9.850;2024-02-15T07:02:46;16.10;;;14.40;;
54545;SDS011;40444;45.184;9.850;2024-02-15T07:05:17;15.90;;;14.02;;
54545;SDS011;40444;45.184;9.850;2024-02-15T07:07:45;16.58;;;13.13;;
54545;SDS011;40444;45.184;9.850;2024-02-15T07:10:14;16.85;;;13.95;;
54545;SDS011;40444;45.184;9.850;2024-02-15T07:12:45;16.50;;;14.73;;
54545;SDS011;40444;45.184;9.850;2024-02-15T07:15:13;17.13;;;14.20;;
54545;SDS011;40444;45.184;9.850;2024-02-15T07:17:43;20.77;;;16.20;;
54545;SDS011;40444;45.184;9.850;2024-02-15T07:20:11;17.75;;;15.85;;
54545;SDS011;40444;45.184;9.850;2024-02-15T07:22:45;20.77;;;16.52;;
54545;SDS011;40444;45.184;9.850;2024-02-15T07:25:13;18.83;;;16.38;;
54545;SDS011;40444;45.184;9.850;2024-02-15T07:27:42;17.63;;;15.35;;
54545;SDS011;40444;45.184;9.850;2024-02-15T07:30:10;17.83;;;15.38;;
54545;SDS011;40444;45.184;9.850;2024-02-15T07:32:39;19.40;;;16.77;;
54545;SDS011;40444;45.184;9.850;2024-02-15T07:35:08;19.08;;;16.25;;
54545;SDS011;40444;45.184;9.850;2024-02-15T07:37:39;20.90;;;17.83;;
54545;SDS011;40444;45.184;9.850;2024-02-15T07:40:19;24.52;;;19.30;;
54545;SDS011;40444;45.184;9.850;2024-02-15T07:42:50;26.05;;;20.40;;
54545;SDS011;40444;45.184;9.850;2024-02-15T07:45:20;27.17;;;21.92;;
54545;SDS011;40444;45.184;9.850;2024-02-15T07:47:49;26.42;;;21.77;;
54545;SDS011;40444;45.184;9.850;2024-02-15T07:50:18;24.55;;;21.92;;
54545;SDS011;40444;45.184;9.850;2024-02-15T07:52:51;26.02;;;21.85;;
54545;SDS011;40444;45.184;9.850;2024-02-15T07:55:19;23.00;;;20.55;;
54545;SDS011;40444;45.184;9.850;2024-02-15T07:57:48;24.45;;;21.23;;
54545;SDS011;40444;45.184;9.850;2024-02-15T08:00:17;26.75;;;21.13;;
54545;SDS011;40444;45.184;9.850;2024-02-15T08:02:45;29.13;;;22.98;;
54545;SDS011;40444;45.184;9.850;2024-02-15T08:05:15;24.88;;;22.15;;
54545;SDS011;40444;45.184;9.850;2024-02-15T08:07:44;27.02;;;23.40;;
54545;SDS011;40444;45.184;9.850;2024-02-15T08:10:13;27.63;;;23.33;;
54545;SDS011;40444;45.184;9.850;2024-02-15T08:12:45;31.95;;;27.25;;
54545;SDS011;40444;45.184;9.850;2024-02-15T08:15:16;33.42;;;27.83;;
54545;SDS011;40444;45.184;9.850;2024-02-15T08:17:45;34.03;;;29.77;;
54545;SDS011;40444;45.184;9.850;2024-02-15T08:20:15;36.45;;;30.25;;
54545;SDS011;40444;45.184;9.850;2024-02-15T08:22:49;37.45;;;30.15;;
54545;SDS011;40444;45.184;9.850;2024-02-15T08:25:18;40.00;;;29.50;;
54545;SDS011;40444;45.184;9.850;2024-02-15T08:27:47;35.78;;;28.77;;
54545;SDS011;40444;45.184;9.850;2024-02-15T08:30:18;36.90;;;29.77;;
54545;SDS011;40444;45.184;9.850;2024-02-15T08:32:51;37.33;;;29.45;;
54545;SDS011;40444;45.184;9.850;2024-02-15T08:35:23;36.45;;;29.08;;
54545;SDS011;40444;45.184;9.850;2024-02-15T08:37:51;34.63;;;27.70;;
54545;SDS011;40444;45.184;9.850;2024-02-15T08:40:21;39.47;;;27.02;;
54545;SDS011;40444;45.184;9.850;2024-02-15T08:42:53;31.98;;;25.42;;
54545;SDS011;40444;45.184;9.850;2024-02-15T08:45:23;28.70;;;25.20;;
54545;SDS011;40444;45.184;9.850;2024-02-15T08:47:52;29.38;;;25.77;;
54545;SDS011;40444;45.184;9.850;2024-02-15T08:50:21;29.83;;;24.98;;
54545;SDS011;40444;45.184;9.850;2024-02-15T08:52:51;29.45;;;24.42;;
54545;SDS011;40444;45.184;9.850;2024-02-15T08:55:20;28.48;;;24.38;;
54545;SDS011;40444;45.184;9.850;2024-02-15T08:57:54;26.80;;;23.52;;
54545;SDS011;40444;45.184;9.850;2024-02-15T09:00:23;32.08;;;24.48;;
54545;SDS011;40444;45.184;9.850;2024-02-15T09:02:54;30.08;;;25.08;;
54545;SDS011;40444;45.184;9.850;2024-02-15T09:05:25;27.63;;;24.55;;
54545;SDS011;40444;45.184;9.850;2024-02-15T09:07:53;33.33;;;26.65;;
54545;SDS011;40444;45.184;9.850;2024-02-15T09:10:23;30.70;;;25.58;;
54545;SDS011;40444;45.184;9.850;2024-02-15T09:12:51;32.78;;;26.60;;
54545;SDS011;40444;45.184;9.850;2024-02-15T09:15:20;31.58;;;26.15;;
54545;SDS011;40444;45.184;9.850;2024-02-15T09:17:50;29.20;;;23.98;;
54545;SDS011;40444;45.184;9.850;2024-02-15T09:20:18;29.70;;;24.15;;
54545;SDS011;40444;45.184;9.850;2024-02-15T09:22:49;29.52;;;23.40;;
54545;SDS011;40444;45.184;9.850;2024-02-15T09:25:18;30.42;;;25.25;;
54545;SDS011;40444;45.184;9.850;2024-02-15T09:27:47;26.25;;;23.33;;
54545;SDS011;40444;45.184;9.850;2024-02-15T09:30:16;31.67;;;24.67;;
54545;SDS011;40444;45.184;9.850;2024-02-15T09:32:46;27.52;;;22.60;;
54545;SDS011;40444;45.184;9.850;2024-02-15T09:35:14;27.52;;;23.67;;
54545;SDS011;40444;45.184;9.850;2024-02-15T09:37:44;25.63;;;22.70;;
54545;SDS011;40444;45.184;9.850;2024-02-15T09:40:13;28.23;;;22.95;;
54545;SDS011;40444;45.184;9.850;2024-02-15T09:42:44;28.83;;;23.23;;
54545;SDS011;40444;45.184;9.850;2024-02-15T09:45:13;28.17;;;23.65;;
54545;SDS011;40444;45.184;9.850;2024-02-15T09:47:43;24.98;;;22.10;;
54545;SDS011;40444;45.184;9.850;2024-02-15T09:50:13;28.30;;;22.92;;
54545;SDS011;40444;45.184;9.850;2024-02-15T09:52:44;25.17;;;22.25;;
54545;SDS011;40444;45.184;9.850;2024-02-15T09:55:17;25.17;;;22.38;;
54545;SDS011;40444;45.184;9.850;2024-02-15T09:57:46;26.85;;;22.20;;
54545;SDS011;40444;45.184;9.850;2024-02-15T10:00:15;25.63;;;21.95;;
54545;SDS011;40444;45.184;9.850;2024-02-15T10:02:50;26.95;;;23.70;;
54545;SDS011;40444;45.184;9.850;2024-02-15T10:05:23;26.60;;;23.42;;
54545;SDS011;40444;45.184;9.850;2024-02-15T10:07:52;27.35;;;23.27;;
54545;SDS011;40444;45.184;9.850;2024-02-15T10:10:23;28.92;;;23.23;;
54545;SDS011;40444;45.184;9.850;2024-02-15T10:12:53;27.63;;;23.23;;
54545;SDS011;40444;45.184;9.850;2024-02-15T10:15:35;26.50;;;23.65;;
54545;SDS011;40444;45.184;9.850;2024-02-15T10:18:09;25.75;;;23.02;;
54545;SDS011;40444;45.184;9.850;2024-02-15T10:20:41;26.92;;;21.95;;
54545;SDS011;40444;45.184;9.850;2024-02-15T10:23:14;25.80;;;22.30;;
54545;SDS011;40444;45.184;9.850;2024-02-15T10:25:47;24.25;;;21.65;;
54545;SDS011;40444;45.184;9.850;2024-02-15T10:28:20;28.20;;;23.17;;
54545;SDS011;40444;45.184;9.850;2024-02-15T10:30:51;25.55;;;21.85;;
54545;SDS011;40444;45.184;9.850;2024-02-15T10:33:26;27.13;;;22.58;;
54545;SDS011;40444;45.184;9.850;2024-02-15T10:36:08;28.48;;;24.38;;
54545;SDS011;40444;45.184;9.850;2024-02-15T10:38:39;30.35;;;24.23;;
54545;SDS011;40444;45.184;9.850;2024-02-15T10:41:08;28.70;;;23.52;;
54545;SDS011;40444;45.184;9.850;2024-02-15T10:43:36;29.08;;;24.35;;
54545;SDS011;40444;45.184;9.850;2024-02-15T10:46:06;29.67;;;23.85;;
54545;SDS011;40444;45.184;9.850;2024-02-15T10:48:38;26.23;;;22.85;;
54545;SDS011;40444;45.184;9.850;2024-02-15T10:51:09;30.83;;;27.58;;
54545;SDS011;40444;45.184;9.850;2024-02-15T10:53:44;29.27;;;24.50;;
54545;SDS011;40444;45.184;9.850;2024-02-15T10:56:27;28.92;;;24.20;;
54545;SDS011;40444;45.184;9.850;2024-02-15T10:59:17;26.35;;;23.30;;
54545;SDS011;40444;45.184;9.850;2024-02-15T11:10:31;27.27;;;23.40;;
54545;SDS011;40444;45.184;9.850;2024-02-15T11:13:00;28.67;;;24.58;;
54545;SDS011;40444;45.184;9.850;2024-02-15T11:15:50;29.15;;;25.45;;
54545;SDS011;40444;45.184;9.850;2024-02-15T11:21:11;30.42;;;24.60;;
54545;SDS011;40444;45.184;9.850;2024-02-15T11:23:40;30.58;;;25.92;;
54545;SDS011;40444;45.184;9.850;2024-02-15T11:35:02;29.00;;;25.85;;
54545;SDS011;40444;45.184;9.850;2024-02-15T11:43:04;33.97;;;26.58;;
54545;SDS011;40444;45.184;9.850;2024-02-15T11:45:35;33.05;;;27.42;;
54545;SDS011;40444;45.184;9.850;2024-02-15T11:48:10;30.73;;;25.85;;
54545;SDS011;40444;45.184;9.850;2024-02-15T11:50:41;31.02;;;26.35;;
54545;SDS011;40444;45.184;9.850;2024-02-15T11:53:10;30.30;;;25.48;;
54545;SDS011;40444;45.184;9.850;2024-02-15T11:55:40;31.38;;;26.75;;
54545;SDS011;40444;45.184;9.850;2024-02-15T11:58:09;35.67;;;27.42;;
54545;SDS011;40444;45.184;9.850;2024-02-15T12:00:39;35.28;;;27.30;;
54545;SDS011;40444;45.184;9.850;2024-02-15T12:03:26;35.92;;;29.33;;
54545;SDS011;40444;45.184;9.850;2024-02-15T12:06:30;29.60;;;26.40;;
54545;SDS011;40444;45.184;9.850;2024-02-15T12:09:18;33.65;;;28.05;;
54545;SDS011;40444;45.184;9.850;2024-02-15T12:12:06;32.33;;;26.85;;
54545;SDS011;40444;45.184;9.850;2024-02-15T12:15:14;33.50;;;28.08;;
54545;SDS011;40444;45.184;9.850;2024-02-15T12:18:15;35.28;;;27.70;;
54545;SDS011;40444;45.184;9.850;2024-02-15T12:21:04;35.45;;;28.83;;
54545;SDS011;40444;45.184;9.850;2024-02-15T12:23:34;33.38;;;28.33;;
54545;SDS011;40444;45.184;9.850;2024-02-15T12:26:03;36.45;;;28.67;;
54545;SDS011;40444;45.184;9.850;2024-02-15T12:28:33;34.65;;;27.98;;
54545;SDS011;40444;45.184;9.850;2024-02-15T12:31:08;35.05;;;28.67;;
54545;SDS011;40444;45.184;9.850;2024-02-15T12:33:38;33.47;;;28.13;;
54545;SDS011;40444;45.184;9.850;2024-02-15T12:36:07;33.95;;;28.20;;
54545;SDS011;40444;45.184;9.850;2024-02-15T12:38:36;34.53;;;27.63;;
54545;SDS011;40444;45.184;9.850;2024-02-15T12:41:21;34.65;;;28.08;;
54545;SDS011;40444;45.184;9.850;2024-02-15T12:43:53;36.40;;;28.90;;
54545;SDS011;40444;45.184;9.850;2024-02-15T12:46:21;34.47;;;28.42;;
54545;SDS011;40444;45.184;9.850;2024-02-15T12:48:50;34.20;;;28.67;;
54545;SDS011;40444;45.184;9.850;2024-02-15T12:51:21;35.38;;;28.25;;
54545;SDS011;40444;45.184;9.850;2024-02-15T12:53:50;33.95;;;29.40;;
54545;SDS011;40444;45.184;9.850;2024-02-15T12:56:21;35.28;;;29.08;;
54545;SDS011;40444;45.184;9.850;2024-02-15T12:58:53;36.50;;;29.55;;
54545;SDS011;40444;45.184;9.850;2024-02-15T13:01:21;38.88;;;29.52;;
54545;SDS011;40444;45.184;9.850;2024-02-15T13:03:49;38.45;;;29.75;;
54545;SDS011;40444;45.184;9.850;2024-02-15T13:06:19;33.75;;;28.10;;
54545;SDS011;40444;45.184;9.850;2024-02-15T13:08:51;35.58;;;29.10;;
54545;SDS011;40444;45.184;9.850;2024-02-15T13:11:20;34.42;;;28.60;;
54545;SDS011;40444;45.184;9.850;2024-02-15T13:13:48;36.13;;;29.33;;
54545;SDS011;40444;45.184;9.850;2024-02-15T13:16:17;37.70;;;28.35;;
54545;SDS011;40444;45.184;9.850;2024-02-15T13:18:46;37.55;;;29.65;;
54545;SDS011;40444;45.184;9.850;2024-02-15T13:21:14;38.47;;;29.55;;
54545;SDS011;40444;45.184;9.850;2024-02-15T13:23:45;33.38;;;27.77;;
54545;SDS011;40444;45.184;9.850;2024-02-15T13:26:14;33.45;;;28.60;;
54545;SDS011;40444;45.184;9.850;2024-02-15T13:28:42;35.30;;;28.75;;
54545;SDS011;40444;45.184;9.850;2024-02-15T13:31:12;33.08;;;27.42;;
54545;SDS011;40444;45.184;9.850;2024-02-15T13:33:40;35.60;;;29.50;;
54545;SDS011;40444;45.184;9.850;2024-02-15T13:36:09;36.50;;;29.75;;
54545;SDS011;40444;45.184;9.850;2024-02-15T13:38:39;35.17;;;29.48;;
54545;SDS011;40444;45.184;9.850;2024-02-15T13:41:07;36.72;;;29.80;;
54545;SDS011;40444;45.184;9.850;2024-02-15T13:43:36;34.47;;;28.27;;
54545;SDS011;40444;45.184;9.850;2024-02-15T13:46:07;35.28;;;29.83;;
54545;SDS011;40444;45.184;9.850;2024-02-15T13:48:35;37.30;;;30.35;;
54545;SDS011;40444;45.184;9.850;2024-02-15T13:51:04;36.60;;;29.73;;
54545;SDS011;40444;45.184;9.850;2024-02-15T13:53:37;35.95;;;31.15;;
54545;SDS011;40444;45.184;9.850;2024-02-15T13:56:06;34.33;;;30.25;;
54545;SDS011;40444;45.184;9.850;2024-02-15T13:58:35;37.17;;;29.60;;
54545;SDS011;40444;45.184;9.850;2024-02-15T14:01:04;38.03;;;30.38;;
54545;SDS011;40444;45.184;9.850;2024-02-15T14:11:09;36.67;;;30.05;;
54545;SDS011;40444;45.184;9.850;2024-02-15T14:13:38;35.00;;;29.77;;
54545;SDS011;40444;45.184;9.850;2024-02-15T14:16:07;37.55;;;31.58;;
54545;SDS011;40444;45.184;9.850;2024-02-15T14:18:36;35.03;;;29.88;;
54545;SDS011;40444;45.184;9.850;2024-02-15T14:21:05;34.88;;;30.30;;
54545;SDS011;40444;45.184;9.850;2024-02-15T14:23:38;38.22;;;29.98;;
54545;SDS011;40444;45.184;9.850;2024-02-15T14:26:08;38.72;;;31.48;;
54545;SDS011;40444;45.184;9.850;2024-02-15T14:28:36;36.25;;;30.60;;
54545;SDS011;40444;45.184;9.850;2024-02-15T14:31:10;36.45;;;30.67;;
54545;SDS011;40444;45.184;9.850;2024-02-15T14:33:58;36.25;;;30.77;;
54545;SDS011;40444;45.184;9.850;2024-02-15T14:36:28;35.55;;;29.95;;
54545;SDS011;40444;45.184;9.850;2024-02-15T14:38:57;37.58;;;30.08;;
54545;SDS011;40444;45.184;9.850;2024-02-15T14:41:26;37.75;;;29.27;;
54545;SDS011;40444;45.184;9.850;2024-02-15T14:44:00;36.45;;;29.95;;
54545;SDS011;40444;45.184;9.850;2024-02-15T14:46:29;38.20;;;30.73;;
54545;SDS011;40444;45.184;9.850;2024-02-15T14:48:58;35.47;;;30.17;;
54545;SDS011;40444;45.184;9.850;2024-02-15T14:51:27;36.22;;;29.77;;
54545;SDS011;40444;45.184;9.850;2024-02-15T14:53:57;38.10;;;29.75;;
54545;SDS011;40444;45.184;9.850;2024-02-15T14:56:27;36.85;;;28.92;;
54545;SDS011;40444;45.184;9.850;2024-02-15T14:59:04;33.53;;;28.67;;
54545;SDS011;40444;45.184;9.850;2024-02-15T15:01:32;34.03;;;28.30;;
54545;SDS011;40444;45.184;9.850;2024-02-15T15:04:03;32.40;;;27.67;;
54545;SDS011;40444;45.184;9.850;2024-02-15T15:06:34;34.30;;;29.70;;
54545;SDS011;40444;45.184;9.850;2024-02-15T15:09:21;32.63;;;27.38;;
54545;SDS011;40444;45.184;9.850;2024-02-15T15:12:08;34.45;;;27.25;;
54545;SDS011;40444;45.184;9.850;2024-02-15T15:14:55;34.83;;;29.05;;
54545;SDS011;40444;45.184;9.850;2024-02-15T15:17:23;36.80;;;30.63;;
54545;SDS011;40444;45.184;9.850;2024-02-15T15:19:54;35.05;;;29.48;;
54545;SDS011;40444;45.184;9.850;2024-02-15T15:22:23;35.15;;;28.85;;
54545;SDS011;40444;45.184;9.850;2024-02-15T15:24:52;38.95;;;31.02;;
54545;SDS011;40444;45.184;9.850;2024-02-15T15:27:21;35.05;;;29.63;;
54545;SDS011;40444;45.184;9.850;2024-02-15T15:29:51;39.08;;;29.73;;